Time;durP1;ratioP1;P1;durP2;ratioP2;P2;SDS_P1;SDS_P2;PMS_P1;PMS_P2;Temp;Humidity;BMP_temperature;BMP_pressure;BME280_temperature;BME280_humidity;BME280_pressure;Samples;Min_cycle;Max_cycle;Signal;HPM_P1;HPM_P2
2021/04/09 00:00:48;;;;;;;3.38;1.63;;;25.60;99.90;;;;;;5049846;28;20159;-70
2021/04/09 00:03:16;;;;;;;3.92;1.77;;;25.70;99.90;;;;;;5045242;28;20033;-71
2021/04/09 00:05:44;;;;;;;5.10;1.55;;;25.90;99.90;;;;;;5051884;28;20115;-70
2021/04/09 00:08:11;;;;;;;5.43;1.67;;;26.10;99.90;;;;;;5049451;28;20428;-70
2021/04/09 00:10:39;;;;;;;4.22;1.80;;;26.30;99.90;;;;;;5047410;28;20021;-71
2021/04/09 00:13:08;;;;;;;6.25;2.17;;;26.40;99.90;;;;;;5045981;28;20112;-71
2021/04/09 00:15:36;;;;;;;3.58;1.80;;;26.10;99.90;;;;;;5041677;28;20036;-71
2021/04/09 00:18:04;;;;;;;5.78;1.80;;;25.70;99.90;;;;;;5042041;28;20037;-71
2021/04/09 00:20:31;;;;;;;4.00;1.58;;;25.50;99.90;;;;;;5046672;28;20064;-71
2021/04/09 00:22:59;;;;;;;7.90;2.13;;;25.30;99.90;;;;;;5048430;28;20505;-70
2021/04/09 00:25:26;;;;;;;4.53;1.77;;;25.20;99.90;;;;;;5052042;28;20491;-70
2021/04/09 00:27:53;;;;;;;4.60;1.92;;;24.90;99.90;;;;;;5050866;28;20048;-70
2021/04/09 00:30:26;;;;;;;3.88;2.15;;;24.90;99.90;;;;;;5049858;28;20108;-71
2021/04/09 00:32:54;;;;;;;5.38;1.90;;;24.90;99.90;;;;;;5042671;28;20036;-70
2021/04/09 00:35:22;;;;;;;6.53;2.13;;;24.80;99.90;;;;;;5045171;28;20413;-71
2021/04/09 00:37:51;;;;;;;3.38;2.45;;;24.80;99.90;;;;;;5044758;28;20059;-70
2021/04/09 00:40:19;;;;;;;3.75;1.58;;;24.80;99.90;;;;;;5042418;28;20104;-70
2021/04/09 00:42:47;;;;;;;5.43;3.00;;;24.70;99.90;;;;;;5049999;28;20044;-69
2021/04/09 00:45:14;;;;;;;4.70;2.00;;;24.80;99.90;;;;;;5046942;28;20021;-69
2021/04/09 00:47:45;;;;;;;4.07;2.17;;;24.80;99.90;;;;;;5042921;28;20021;-71
2021/04/09 00:50:14;;;;;;;3.67;1.90;;;24.90;99.90;;;;;;5047898;28;20041;-70
2021/04/09 00:52:44;;;;;;;3.45;2.22;;;25.10;99.90;;;;;;5046632;28;20044;-70
2021/04/09 00:55:13;;;;;;;5.13;2.00;;;25.50;99.90;;;;;;5050628;28;20052;-70
2021/04/09 00:57:42;;;;;;;3.25;1.85;;;25.80;99.90;;;;;;5049642;28;20029;-70
2021/04/09 01:00:13;;;;;;;3.88;1.83;;;25.80;99.90;;;;;;5048326;28;20017;-70
2021/04/09 01:02:41;;;;;;;4.20;2.03;;;25.80;99.90;;;;;;5045512;28;20029;-69
2021/04/09 01:05:11;;;;;;;5.78;2.13;;;25.80;99.90;;;;;;5046781;28;20029;-70
2021/04/09 01:07:40;;;;;;;3.72;1.40;;;25.60;99.90;;;;;;5049967;28;20059;-70
2021/04/09 01:10:09;;;;;;;3.92;1.90;;;25.50;99.90;;;;;;5051292;28;20024;-69
2021/04/09 01:12:36;;;;;;;3.25;1.83;;;25.50;99.90;;;;;;5043407;28;20052;-70
2021/04/09 01:15:06;;;;;;;5.55;1.88;;;25.50;99.90;;;;;;5049632;28;20033;-70
2021/04/09 01:17:47;;;;;;;3.72;1.90;;;25.50;99.90;;;;;;5048696;28;20041;-70
2021/04/09 01:20:30;;;;;;;2.03;1.35;;;25.50;99.90;;;;;;5047899;28;20029;-69
2021/04/09 01:23:03;;;;;;;3.72;1.63;;;25.50;99.90;;;;;;5038612;28;20058;-69
2021/04/09 01:25:59;;;;;;;5.73;1.70;;;25.50;99.90;;;;;;5037907;28;20037;-68
2021/04/09 01:28:26;;;;;;;1.92;1.42;;;25.40;99.90;;;;;;5046823;28;20025;-70
2021/04/09 01:31:23;;;;;;;3.67;2.20;;;25.50;99.90;;;;;;5049019;28;20554;-71
2021/04/09 01:33:55;;;;;;;3.80;1.70;;;25.50;99.90;;;;;;5050468;28;20410;-70
2021/04/09 01:36:29;;;;;;;3.20;1.40;;;25.40;99.90;;;;;;5046813;28;20029;-71
2021/04/09 01:39:02;;;;;;;3.65;1.80;;;25.30;99.90;;;;;;5032120;28;20025;-70
2021/04/09 01:41:31;;;;;;;4.40;1.70;;;25.20;99.90;;;;;;5030554;28;20029;-70
2021/04/09 01:44:02;;;;;;;3.55;1.60;;;25.10;99.90;;;;;;5047392;28;20029;-70
2021/04/09 01:46:31;;;;;;;3.40;1.35;;;25.00;99.90;;;;;;5050201;28;20024;-70
2021/04/09 01:48:59;;;;;;;5.35;2.70;;;24.90;99.90;;;;;;5052142;28;20021;-70
2021/04/09 01:51:27;;;;;;;5.78;2.13;;;24.90;99.90;;;;;;5050800;28;20017;-69
2021/04/09 01:53:56;;;;;;;4.72;1.95;;;24.80;99.90;;;;;;5049016;28;20133;-70
2021/04/09 01:56:25;;;;;;;3.45;1.63;;;24.70;99.90;;;;;;5049296;28;20025;-70
2021/04/09 01:58:54;;;;;;;3.20;1.67;;;24.70;99.90;;;;;;5054516;28;20103;-70
2021/04/09 02:01:22;;;;;;;5.68;2.53;;;24.60;99.90;;;;;;5039419;28;20026;-70
2021/04/09 02:03:54;;;;;;;5.38;2.10;;;24.50;99.90;;;;;;5054477;28;20025;-69
2021/04/09 02:06:22;;;;;;;3.95;1.90;;;24.60;99.90;;;;;;5052277;28;20017;-69
2021/04/09 02:08:50;;;;;;;4.25;1.92;;;24.50;99.90;;;;;;5055018;28;20566;-70
2021/04/09 02:11:19;;;;;;;3.80;1.80;;;24.60;99.90;;;;;;5055088;28;20028;-69
2021/04/09 02:13:49;;;;;;;4.55;1.83;;;24.60;99.90;;;;;;5052974;28;20068;-70
2021/04/09 02:16:18;;;;;;;5.18;1.70;;;24.70;99.90;;;;;;5054777;28;20024;-69
2021/04/09 02:18:46;;;;;;;3.67;1.80;;;24.70;99.90;;;;;;5053933;28;20029;-70
2021/04/09 02:21:13;;;;;;;5.28;2.47;;;24.70;99.90;;;;;;5055207;28;20048;-70
2021/04/09 02:23:41;;;;;;;6.57;2.20;;;24.60;99.90;;;;;;5053361;28;20107;-70
2021/04/09 02:26:08;;;;;;;4.25;1.90;;;24.60;99.90;;;;;;5055025;28;20028;-69
2021/04/09 02:28:35;;;;;;;4.60;2.10;;;24.50;99.90;;;;;;5038475;28;20057;-69
2021/04/09 02:31:03;;;;;;;3.80;2.20;;;24.40;99.90;;;;;;5035178;28;20029;-69
2021/04/09 02:33:32;;;;;;;6.18;2.40;;;24.30;99.90;;;;;;5051986;28;20045;-69
2021/04/09 02:36:00;;;;;;;5.18;2.15;;;24.40;99.90;;;;;;5054910;28;20421;-69
2021/04/09 02:38:30;;;;;;;3.50;1.73;;;24.40;99.90;;;;;;5052638;28;20116;-70
2021/04/09 02:41:01;;;;;;;6.55;1.77;;;24.50;99.90;;;;;;5054886;28;20068;-70
2021/04/09 02:43:30;;;;;;;10.07;2.30;;;24.50;99.90;;;;;;5053111;28;20048;-69
2021/04/09 02:45:58;;;;;;;4.13;2.15;;;24.60;99.90;;;;;;5054473;28;20021;-70
2021/04/09 02:48:30;;;;;;;4.15;1.90;;;24.80;99.90;;;;;;5052428;28;20032;-69
2021/04/09 02:51:00;;;;;;;5.40;1.85;;;24.90;99.90;;;;;;5050259;28;20044;-69
2021/04/09 02:53:30;;;;;;;3.83;1.63;;;24.90;99.90;;;;;;5050535;28;20039;-69
2021/04/09 02:56:02;;;;;;;5.95;1.83;;;24.90;99.90;;;;;;5053011;28;20025;-69
2021/04/09 02:58:33;;;;;;;3.42;1.70;;;24.90;99.90;;;;;;5052642;28;20082;-69
2021/04/09 03:01:01;;;;;;;3.95;1.90;;;24.90;99.90;;;;;;5053272;28;20419;-69
2021/04/09 03:03:30;;;;;;;7.05;2.17;;;24.90;99.90;;;;;;5052102;28;20162;-69
2021/04/09 03:05:58;;;;;;;8.00;1.50;;;24.80;99.90;;;;;;5054338;28;20063;-69
2021/04/09 03:08:26;;;;;;;6.07;2.60;;;24.70;99.90;;;;;;5052696;28;20477;-69
2021/04/09 03:10:53;;;;;;;7.50;2.38;;;24.70;99.90;;;;;;5054326;28;20021;-70
2021/04/09 03:13:20;;;;;;;10.98;2.47;;;24.70;99.90;;;;;;5052238;28;20025;-69
2021/04/09 03:16:01;;;;;;;5.35;1.85;;;24.60;99.90;;;;;;5039281;28;20034;-69
2021/04/09 03:18:38;;;;;;;5.57;1.40;;;24.60;99.90;;;;;;5050657;28;20025;-70
2021/04/09 03:21:06;;;;;;;5.72;1.75;;;24.70;99.90;;;;;;5054014;28;20029;-70
2021/04/09 03:23:33;;;;;;;5.80;2.13;;;25.10;99.90;;;;;;5052272;28;20217;-70
2021/04/09 03:26:01;;;;;;;4.38;1.75;;;25.10;99.90;;;;;;5038225;28;20045;-69
2021/04/09 03:28:28;;;;;;;4.57;1.40;;;25.00;99.90;;;;;;5049888;28;20017;-70
2021/04/09 03:30:55;;;;;;;3.40;1.88;;;24.90;99.90;;;;;;5053775;28;20029;-70
2021/04/09 03:33:24;;;;;;;3.88;1.88;;;24.90;99.90;;;;;;5037588;28;20057;-70
2021/04/09 03:35:52;;;;;;;3.22;1.70;;;25.00;99.90;;;;;;5034066;28;20112;-70
2021/04/09 03:38:19;;;;;;;3.70;1.92;;;25.30;99.90;;;;;;5049076;28;20043;-70
2021/04/09 03:40:47;;;;;;;5.13;1.52;;;25.70;99.90;;;;;;5053720;28;20028;-70
2021/04/09 03:43:15;;;;;;;4.82;2.10;;;25.80;99.90;;;;;;5051849;28;20025;-71
2021/04/09 03:45:42;;;;;;;2.85;1.63;;;26.50;99.90;;;;;;5053547;28;20029;-70
2021/04/09 03:48:10;;;;;;;5.05;1.67;;;26.70;99.90;;;;;;5052030;28;20025;-71
2021/04/09 03:50:37;;;;;;;5.97;2.03;;;26.70;99.90;;;;;;5051854;28;20041;-70
2021/04/09 03:53:05;;;;;;;2.92;2.13;;;26.60;99.90;;;;;;5049853;28;20055;-70
2021/04/09 03:55:33;;;;;;;4.10;1.75;;;26.70;99.90;;;;;;5052617;28;20033;-70
2021/04/09 03:58:01;;;;;;;4.68;2.00;;;26.60;99.90;;;;;;5051911;28;20055;-70
2021/04/09 04:00:28;;;;;;;5.28;1.83;;;26.70;99.90;;;;;;5053153;28;20029;-70
2021/04/09 04:02:55;;;;;;;4.53;1.40;;;26.90;99.90;;;;;;5051141;28;20037;-70
2021/04/09 04:05:23;;;;;;;2.72;1.48;;;27.20;99.90;;;;;;5053205;28;20040;-70
2021/04/09 04:07:50;;;;;;;4.22;1.40;;;27.10;99.90;;;;;;5049834;28;20079;-70
2021/04/09 04:10:17;;;;;;;2.33;1.42;;;27.40;99.80;;;;;;5053109;28;20036;-70
2021/04/09 04:12:45;;;;;;;4.00;1.42;;;27.20;99.00;;;;;;5051337;28;20029;-70
2021/04/09 04:15:12;;;;;;;2.58;1.23;;;27.10;99.60;;;;;;5050577;28;20029;-70
2021/04/09 04:17:39;;;;;;;3.83;1.58;;;27.40;99.60;;;;;;5043149;28;20041;-70
2021/04/09 04:20:07;;;;;;;2.53;1.35;;;27.50;99.40;;;;;;5033185;28;20549;-70
2021/04/09 04:22:35;;;;;;;3.50;1.17;;;27.50;98.80;;;;;;5042556;28;20104;-71
2021/04/09 04:25:03;;;;;;;4.00;1.77;;;27.60;99.10;;;;;;5051474;28;20028;-69
2021/04/09 04:27:30;;;;;;;2.22;1.20;;;27.70;98.10;;;;;;5051120;28;20020;-70
2021/04/09 04:29:57;;;;;;;4.00;1.38;;;27.70;99.50;;;;;;5047121;28;20720;-70
2021/04/09 04:32:25;;;;;;;3.08;1.30;;;27.80;99.90;;;;;;5050892;28;20048;-70
2021/04/09 04:34:52;;;;;;;2.40;1.10;;;27.60;99.90;;;;;;5051457;28;20051;-70
2021/04/09 04:37:22;;;;;;;4.57;1.30;;;27.40;98.90;;;;;;5050518;28;20133;-70
2021/04/09 04:39:49;;;;;;;5.90;1.75;;;27.20;99.20;;;;;;5052811;28;20020;-70
2021/04/09 04:42:16;;;;;;;5.18;1.67;;;27.40;99.90;;;;;;5051061;28;20044;-70
2021/04/09 04:44:44;;;;;;;3.47;1.50;;;27.20;99.60;;;;;;5051428;28;20120;-70
2021/04/09 04:47:11;;;;;;;3.70;1.48;;;27.30;99.90;;;;;;5050789;28;20028;-70
2021/04/09 04:49:38;;;;;;;4.30;1.35;;;27.50;99.60;;;;;;5052493;28;20079;-70
2021/04/09 04:52:07;;;;;;;2.63;1.50;;;27.20;99.20;;;;;;5045690;28;20059;-71
2021/04/09 04:54:42;;;;;;;5.15;1.67;;;27.20;99.90;;;;;;5032778;28;20059;-70
2021/04/09 04:57:09;;;;;;;3.88;1.50;;;27.30;98.90;;;;;;5038026;28;20033;-70
2021/04/09 04:59:37;;;;;;;4.70;1.50;;;27.30;98.70;;;;;;5052353;28;20024;-70
2021/04/09 05:02:04;;;;;;;3.20;1.50;;;27.20;98.80;;;;;;5050632;28;20071;-70
2021/04/09 05:04:31;;;;;;;3.08;1.30;;;27.20;99.00;;;;;;5051331;28;20123;-71
2021/04/09 05:06:59;;;;;;;4.43;1.45;;;27.10;99.40;;;;;;5048952;28;20025;-71
2021/04/09 05:09:29;;;;;;;3.85;1.55;;;27.10;98.80;;;;;;5052503;28;20365;-72
2021/04/09 05:11:56;;;;;;;4.53;1.50;;;27.20;99.40;;;;;;5050625;28;20430;-71
2021/04/09 05:14:23;;;;;;;4.20;1.50;;;27.30;99.40;;;;;;5065777;28;20033;-71
2021/04/09 05:16:51;;;;;;;3.63;1.67;;;27.30;98.60;;;;;;5050863;28;20524;-71
2021/04/09 05:19:18;;;;;;;3.65;1.02;;;27.30;99.00;;;;;;5046548;28;20363;-71
2021/04/09 05:21:45;;;;;;;2.53;1.10;;;27.20;98.70;;;;;;5034441;28;20409;-71
2021/04/09 05:24:12;;;;;;;4.32;1.52;;;27.10;98.50;;;;;;5058556;28;20025;-71
2021/04/09 05:26:40;;;;;;;2.08;1.30;;;27.10;98.20;;;;;;5042653;28;20057;-71
2021/04/09 05:29:07;;;;;;;3.08;1.60;;;27.10;97.90;;;;;;5049732;28;20025;-71
2021/04/09 05:31:40;;;;;;;5.68;1.70;;;27.00;98.10;;;;;;5052959;28;20017;-71
2021/04/09 05:34:07;;;;;;;3.78;1.50;;;27.00;99.10;;;;;;5055413;28;20033;-71
2021/04/09 05:36:35;;;;;;;5.50;1.30;;;27.10;99.00;;;;;;5054163;28;20473;-71
2021/04/09 05:39:02;;;;;;;3.28;1.60;;;27.20;99.00;;;;;;5053657;28;20385;-71
2021/04/09 05:41:30;;;;;;;3.47;1.60;;;27.10;98.60;;;;;;5054369;28;20028;-71
2021/04/09 05:43:57;;;;;;;2.83;1.75;;;27.00;98.60;;;;;;5049824;28;20028;-68
2021/04/09 05:46:24;;;;;;;2.25;1.33;;;27.00;98.60;;;;;;5035670;28;20036;-71
2021/04/09 05:48:51;;;;;;;1.52;1.13;;;27.00;99.60;;;;;;5055182;28;20122;-69
2021/04/09 05:51:19;;;;;;;2.38;1.60;;;27.00;99.40;;;;;;5055310;28;20342;-69
2021/04/09 05:53:46;;;;;;;8.00;2.08;;;27.00;99.10;;;;;;5054597;28;20025;-69
2021/04/09 05:56:14;;;;;;;3.25;1.67;;;27.00;99.20;;;;;;5055643;28;20500;-69
2021/04/09 05:58:41;;;;;;;5.43;1.67;;;26.90;99.90;;;;;;5054121;28;20029;-69
2021/04/09 06:01:08;;;;;;;5.25;1.65;;;26.90;99.90;;;;;;5055436;28;20031;-69
2021/04/09 06:03:36;;;;;;;1.88;1.27;;;26.80;99.90;;;;;;5053463;28;20029;-69
2021/04/09 06:06:03;;;;;;;4.10;1.58;;;26.60;99.90;;;;;;5055487;28;20036;-69
2021/04/09 06:08:30;;;;;;;9.25;2.03;;;26.60;99.90;;;;;;5053828;28;20021;-69
2021/04/09 06:10:58;;;;;;;7.20;1.60;;;26.40;99.90;;;;;;5054304;28;20035;-69
2021/04/09 06:13:25;;;;;;;4.53;2.08;;;26.50;99.90;;;;;;5053150;28;20025;-69
2021/04/09 06:15:52;;;;;;;5.03;1.92;;;26.50;99.90;;;;;;5051397;28;20051;-69
2021/04/09 06:18:20;;;;;;;2.83;1.70;;;26.40;99.90;;;;;;5049757;28;20029;-69
2021/04/09 06:20:47;;;;;;;4.43;1.77;;;26.30;99.90;;;;;;5053194;28;20065;-69
2021/04/09 06:23:14;;;;;;;4.47;1.83;;;26.30;99.90;;;;;;5050866;28;20029;-69
2021/04/09 06:25:42;;;;;;;4.53;1.83;;;26.30;99.90;;;;;;5053363;28;20082;-69
2021/04/09 06:28:09;;;;;;;4.32;1.60;;;26.20;99.90;;;;;;5050009;28;20026;-69
2021/04/09 06:30:36;;;;;;;3.40;1.33;;;26.10;99.90;;;;;;5041654;28;20020;-69
2021/04/09 06:33:04;;;;;;;4.15;1.48;;;26.10;99.90;;;;;;5050839;28;20098;-69
2021/04/09 06:35:32;;;;;;;3.03;1.55;;;26.10;99.90;;;;;;5050391;28;20374;-70
2021/04/09 06:37:59;;;;;;;5.28;1.17;;;26.30;99.90;;;;;;5052587;28;20029;-70
2021/04/09 06:40:28;;;;;;;5.82;1.20;;;26.40;99.90;;;;;;5054354;28;20381;-70
2021/04/09 06:43:00;;;;;;;6.13;1.77;;;26.30;99.90;;;;;;5052499;28;20108;-70
2021/04/09 06:45:28;;;;;;;4.18;1.40;;;26.40;99.50;;;;;;5053624;28;20385;-69
2021/04/09 06:47:57;;;;;;;3.55;1.63;;;26.50;99.80;;;;;;5052219;28;20040;-69
2021/04/09 06:50:24;;;;;;;4.85;1.52;;;26.50;99.50;;;;;;5054330;28;20551;-69
2021/04/09 06:52:54;;;;;;;6.03;1.08;;;26.40;99.50;;;;;;5052251;28;20480;-69
2021/04/09 06:55:23;;;;;;;3.63;1.15;;;26.30;99.70;;;;;;5054406;28;20589;-69
2021/04/09 06:57:52;;;;;;;4.85;1.73;;;26.30;99.00;;;;;;5051980;28;20016;-69
2021/04/09 07:00:23;;;;;;;3.33;1.30;;;26.30;99.80;;;;;;5043539;28;20051;-69
2021/04/09 07:02:51;;;;;;;3.17;1.45;;;26.10;99.90;;;;;;5051442;28;20028;-69
2021/04/09 07:05:19;;;;;;;4.97;1.83;;;25.80;99.90;;;;;;5054088;28;20549;-68
2021/04/09 07:07:47;;;;;;;2.60;1.45;;;25.60;99.90;;;;;;5049418;28;20028;-69
2021/04/09 07:10:14;;;;;;;7.07;1.85;;;25.40;99.90;;;;;;5050101;28;20043;-70
2021/04/09 07:12:42;;;;;;;1.92;1.23;;;25.50;99.90;;;;;;5050689;28;20041;-70
2021/04/09 07:15:19;;;;;;;4.25;1.90;;;25.40;99.90;;;;;;5052092;28;20409;-70
2021/04/09 07:17:48;;;;;;;3.58;1.65;;;25.50;99.90;;;;;;5049568;28;20036;-70
2021/04/09 07:20:25;;;;;;;4.00;1.80;;;25.70;99.90;;;;;;5038409;28;20030;-70
2021/04/09 07:22:55;;;;;;;3.70;1.73;;;25.70;99.90;;;;;;5058017;28;20021;-70
2021/04/09 07:25:24;;;;;;;3.60;1.60;;;25.70;99.90;;;;;;5053542;28;21232;-70
2021/04/09 07:28:12;;;;;;;3.13;1.75;;;25.60;99.90;;;;;;5050699;28;20044;-70
2021/04/09 07:30:42;;;;;;;7.15;2.28;;;25.70;99.90;;;;;;5033316;28;20041;-72
2021/04/09 07:33:12;;;;;;;8.38;2.65;;;25.70;99.90;;;;;;5046866;28;20049;-72
2021/04/09 07:35:54;;;;;;;8.55;2.72;;;25.60;99.90;;;;;;5052225;28;20098;-71
2021/04/09 07:38:26;;;;;;;11.10;3.95;;;25.00;99.90;;;;;;5049316;28;20057;-72
2021/04/09 07:41:05;;;;;;;19.85;5.65;;;24.60;99.90;;;;;;5053654;28;20033;-71
2021/04/09 07:43:37;;;;;;;24.52;5.88;;;24.10;99.90;;;;;;5051801;28;20381;-72
2021/04/09 07:46:06;;;;;;;26.10;6.20;;;23.70;99.90;;;;;;5053010;28;20029;-73
2021/04/09 07:48:38;;;;;;;28.83;6.95;;;23.40;99.90;;;;;;5051382;28;20043;-72
2021/04/09 07:51:07;;;;;;;31.58;7.70;;;23.10;99.90;;;;;;5052628;28;20473;-73
2021/04/09 07:53:40;;;;;;;36.10;8.38;;;22.90;99.90;;;;;;5051404;28;20060;-73
2021/04/09 07:56:13;;;;;;;22.35;6.32;;;22.80;99.90;;;;;;5050141;28;20028;-73
2021/04/09 07:58:42;;;;;;;32.88;7.13;;;22.60;99.90;;;;;;5052799;28;20033;-72
2021/04/09 08:01:21;;;;;;;27.63;6.45;;;22.60;99.90;;;;;;5052041;28;20104;-73
2021/04/09 08:03:49;;;;;;;29.77;7.72;;;22.50;99.90;;;;;;5050505;28;20055;-73
2021/04/09 08:06:21;;;;;;;31.17;7.30;;;22.40;99.90;;;;;;5050870;28;20056;-74
2021/04/09 08:08:48;;;;;;;29.08;7.85;;;22.30;99.90;;;;;;5049027;28;20127;-72
2021/04/09 08:11:20;;;;;;;26.35;6.38;;;22.30;99.90;;;;;;5050944;28;20020;-72
2021/04/09 08:13:59;;;;;;;30.05;6.82;;;22.20;99.90;;;;;;5050945;28;20456;-73
2021/04/09 08:16:40;;;;;;;24.00;5.85;;;22.20;99.90;;;;;;5051807;28;20477;-73
2021/04/09 08:19:13;;;;;;;29.38;6.28;;;22.10;99.90;;;;;;5049689;28;20021;-73
2021/04/09 08:21:49;;;;;;;27.48;6.88;;;22.10;99.90;;;;;;5046726;28;20025;-72
2021/04/09 08:24:16;;;;;;;25.90;5.50;;;22.00;99.90;;;;;;5047501;28;20485;-72
2021/04/09 08:26:44;;;;;;;27.58;6.53;;;22.00;99.90;;;;;;5048295;28;20021;-74
2021/04/09 08:29:14;;;;;;;24.48;5.53;;;21.90;99.90;;;;;;5051261;28;20110;-72
2021/04/09 08:31:42;;;;;;;28.45;6.50;;;21.80;99.90;;;;;;5051059;28;20017;-72
2021/04/09 08:34:11;;;;;;;25.73;6.60;;;21.80;99.90;;;;;;5050082;28;20044;-73
2021/04/09 08:36:45;;;;;;;29.70;5.97;;;21.70;99.90;;;;;;5051169;28;20444;-72
2021/04/09 08:39:14;;;;;;;35.90;7.68;;;21.70;99.90;;;;;;5065455;28;20037;-72
2021/04/09 08:41:42;;;;;;;29.92;5.93;;;21.60;99.90;;;;;;5051953;28;20029;-73
2021/04/09 08:44:13;;;;;;;21.98;5.05;;;21.60;99.90;;;;;;5052068;28;20028;-72
2021/04/09 08:46:41;;;;;;;18.08;5.28;;;21.60;99.90;;;;;;5051563;28;20020;-72
2021/04/09 08:49:11;;;;;;;30.42;7.22;;;21.50;99.90;;;;;;5049009;28;20021;-72
2021/04/09 08:51:40;;;;;;;28.23;5.55;;;21.50;99.90;;;;;;5036482;28;20044;-73
2021/04/09 08:54:23;;;;;;;25.75;6.15;;;21.50;99.90;;;;;;5059361;28;20040;-72
2021/04/09 08:56:51;;;;;;;23.55;4.47;;;21.50;99.90;;;;;;5052331;28;20044;-73
2021/04/09 08:59:44;;;;;;;23.80;6.10;;;21.40;99.90;;;;;;5048219;28;20032;-72
2021/04/09 09:02:16;;;;;;;27.30;5.35;;;21.40;99.90;;;;;;5044514;28;20028;-72
2021/04/09 09:05:14;;;;;;;25.25;6.28;;;21.30;99.90;;;;;;5056140;28;20053;-73
2021/04/09 09:07:44;;;;;;;30.02;6.15;;;21.40;99.90;;;;;;5053639;28;20558;-72
2021/04/09 09:10:24;;;;;;;27.50;6.75;;;21.30;99.90;;;;;;5055525;28;20481;-72
2021/04/09 09:13:09;;;;;;;22.02;5.78;;;21.30;99.90;;;;;;5055607;28;20025;-71
2021/04/09 09:15:45;;;;;;;29.05;5.82;;;21.30;99.90;;;;;;5053426;28;20416;-72
2021/04/09 09:18:24;;;;;;;26.75;5.57;;;21.30;99.90;;;;;;5054188;28;20100;-72
2021/04/09 09:21:02;;;;;;;27.42;6.15;;;21.20;99.90;;;;;;5054178;28;20021;-72
2021/04/09 09:23:52;;;;;;;31.80;5.43;;;21.20;99.90;;;;;;5055571;28;20071;-71
2021/04/09 09:26:30;;;;;;;33.33;6.65;;;21.20;99.90;;;;;;5047480;28;20476;-71
2021/04/09 09:29:13;;;;;;;24.35;5.32;;;21.20;99.90;;;;;;5055233;28;20039;-72
2021/04/09 09:31:43;;;;;;;22.57;4.90;;;21.20;99.90;;;;;;5055596;28;20450;-72
2021/04/09 09:34:20;;;;;;;24.50;5.15;;;21.20;99.90;;;;;;5070644;28;20286;-71
2021/04/09 09:37:12;;;;;;;26.35;4.80;;;21.10;99.90;;;;;;5054519;28;20031;-72
2021/04/09 09:39:48;;;;;;;24.67;5.30;;;21.10;99.90;;;;;;5055869;28;20545;-72
2021/04/09 09:42:36;;;;;;;29.60;5.07;;;21.10;99.90;;;;;;5055716;28;20032;-72
2021/04/09 09:45:09;;;;;;;30.95;5.45;;;21.00;99.90;;;;;;5054774;28;20108;-73
2021/04/09 09:47:41;;;;;;;27.05;4.72;;;21.00;99.90;;;;;;5070253;28;20048;-72
2021/04/09 09:50:16;;;;;;;29.50;4.70;;;21.00;99.90;;;;;;5054660;28;20028;-71
2021/04/09 09:52:55;;;;;;;27.25;4.55;;;20.90;99.90;;;;;;5060609;28;20024;-73
2021/04/09 09:55:40;;;;;;;23.88;4.90;;;20.90;99.90;;;;;;5055113;28;20600;-71
2021/04/09 09:58:18;;;;;;;19.40;4.22;;;20.90;99.90;;;;;;5052628;28;20013;-71
2021/04/09 10:00:54;;;;;;;28.30;5.25;;;20.90;99.90;;;;;;5049148;28;20512;-72
2021/04/09 10:03:38;;;;;;;24.95;4.85;;;20.90;99.90;;;;;;5054554;28;20032;-71
2021/04/09 10:06:08;;;;;;;;;;;20.80;99.90;;;;;;5049810;28;20512;-72
2021/04/09 10:08:37;;;;;;;26.50;5.28;;;20.80;99.90;;;;;;5054058;28;20284;-71
2021/04/09 10:11:17;;;;;;;24.13;4.00;;;20.80;99.90;;;;;;5051896;28;20045;-72
2021/04/09 10:13:46;;;;;;;22.90;4.82;;;20.80;99.90;;;;;;5053370;28;20029;-71
2021/04/09 10:16:17;;;;;;;18.05;3.90;;;20.80;99.90;;;;;;5047691;28;20029;-71
2021/04/09 10:18:52;;;;;;;26.00;5.03;;;20.70;99.90;;;;;;5051117;28;20072;-71
2021/04/09 10:21:23;;;;;;;28.77;4.05;;;20.70;99.90;;;;;;5054923;28;20116;-72
2021/04/09 10:24:03;;;;;;;31.05;5.25;;;20.60;99.90;;;;;;5054176;28;20033;-72
2021/04/09 10:26:31;;;;;;;24.08;4.90;;;20.60;99.90;;;;;;5053682;28;20494;-71
2021/04/09 10:28:58;;;;;;;26.10;5.75;;;20.60;99.90;;;;;;5063091;28;20032;-72
2021/04/09 10:31:25;;;;;;;28.80;4.43;;;20.50;99.90;;;;;;5072874;28;20083;-71
2021/04/09 10:33:56;;;;;;;16.38;4.88;;;20.50;99.90;;;;;;5057141;28;20420;-72
2021/04/09 10:36:28;;;;;;;22.55;4.53;;;20.50;99.90;;;;;;5054289;28;20025;-71
2021/04/09 10:39:00;;;;;;;30.05;5.97;;;20.50;99.90;;;;;;5054611;28;20021;-72
2021/04/09 10:41:37;;;;;;;26.50;3.85;;;20.40;99.90;;;;;;5054723;28;20021;-72
2021/04/09 10:44:05;;;;;;;24.98;4.28;;;20.50;99.90;;;;;;5052832;28;20073;-72
2021/04/09 10:46:39;;;;;;;21.75;3.30;;;20.50;99.90;;;;;;5035797;28;20167;-72
2021/04/09 10:49:15;;;;;;;19.25;4.07;;;20.50;99.90;;;;;;5054443;28;20060;-72
2021/04/09 10:51:50;;;;;;;18.05;3.40;;;20.40;99.90;;;;;;5054376;28;20033;-72
2021/04/09 10:54:29;;;;;;;22.92;4.47;;;20.50;99.90;;;;;;5051151;28;20033;-71
2021/04/09 10:57:07;;;;;;;17.35;3.60;;;20.50;99.90;;;;;;5034586;28;20079;-72
2021/04/09 10:59:37;;;;;;;24.77;6.05;;;20.50;99.90;;;;;;5052388;28;20512;-72
2021/04/09 11:02:07;;;;;;;21.90;3.58;;;20.50;99.90;;;;;;5054298;28;20100;-72
2021/04/09 11:04:36;;;;;;;22.25;3.92;;;20.50;99.90;;;;;;5052051;28;20098;-72
2021/04/09 11:07:06;;;;;;;26.20;4.43;;;20.50;99.90;;;;;;5053993;28;20029;-71
2021/04/09 11:09:51;;;;;;;28.90;4.38;;;20.50;99.90;;;;;;5053776;28;20098;-72
2021/04/09 11:12:20;;;;;;;16.63;3.65;;;20.50;99.90;;;;;;5052070;28;20031;-71
2021/04/09 11:14:49;;;;;;;26.88;6.38;;;20.50;99.90;;;;;;5050855;28;20077;-71
2021/04/09 11:17:28;;;;;;;26.13;5.00;;;20.60;99.90;;;;;;5053881;28;20039;-71
2021/04/09 11:19:57;;;;;;;27.67;4.63;;;20.50;99.90;;;;;;5049945;28;20029;-70
2021/04/09 11:22:29;;;;;;;19.42;4.10;;;20.50;99.90;;;;;;5042268;28;20054;-70
2021/04/09 11:25:02;;;;;;;20.85;4.15;;;20.50;99.90;;;;;;5055374;28;20079;-72
2021/04/09 11:27:34;;;;;;;26.83;3.92;;;20.50;99.90;;;;;;5047156;28;20032;-70
2021/04/09 11:30:19;;;;;;;28.27;4.85;;;20.50;99.90;;;;;;5043962;28;20029;-70
2021/04/09 11:32:51;;;;;;;23.15;4.50;;;20.50;99.90;;;;;;5048684;28;20040;-71
2021/04/09 11:35:20;;;;;;;31.33;6.13;;;20.50;99.90;;;;;;5044389;28;20025;-71
2021/04/09 11:37:50;;;;;;;18.00;3.28;;;20.50;99.90;;;;;;5045162;28;20025;-71
2021/04/09 11:40:38;;;;;;;23.67;4.35;;;20.60;99.90;;;;;;5041629;28;20021;-71
2021/04/09 11:43:10;;;;;;;29.13;4.78;;;20.60;99.90;;;;;;5050028;28;20682;-71
2021/04/09 11:45:49;;;;;;;22.65;4.88;;;20.60;99.90;;;;;;5058026;28;20136;-72
2021/04/09 11:48:27;;;;;;;20.80;3.47;;;20.70;99.90;;;;;;5040704;28;20017;-71
2021/04/09 11:51:15;;;;;;;32.40;5.30;;;20.60;99.90;;;;;;5042316;28;20385;-72
2021/04/09 11:53:42;;;;;;;23.55;3.70;;;20.60;99.90;;;;;;5046997;28;20033;-71
2021/04/09 11:56:10;;;;;;;23.92;4.32;;;20.60;99.90;;;;;;5046718;28;20045;-71
2021/04/09 11:58:43;;;;;;;18.80;4.45;;;20.60;99.90;;;;;;5044117;28;20025;-72
2021/04/09 12:01:10;;;;;;;16.30;3.50;;;20.60;99.90;;;;;;5050781;28;20024;-72
2021/04/09 12:03:45;;;;;;;19.05;4.38;;;20.60;99.90;;;;;;5044354;28;20532;-72
2021/04/09 12:06:13;;;;;;;20.77;3.70;;;20.60;99.90;;;;;;5032894;28;20064;-70
2021/04/09 12:08:41;;;;;;;25.85;4.88;;;20.60;99.90;;;;;;5050742;28;20025;-70
2021/04/09 12:11:09;;;;;;;24.65;4.65;;;20.60;99.90;;;;;;5052761;28;20030;-70
2021/04/09 12:13:44;;;;;;;22.40;5.93;;;20.60;99.90;;;;;;5049577;28;20477;-71
2021/04/09 12:16:12;;;;;;;24.60;5.03;;;20.60;99.90;;;;;;5051673;28;20051;-70
2021/04/09 12:18:39;;;;;;;24.50;4.32;;;20.60;99.90;;;;;;5050357;28;20028;-70
2021/04/09 12:21:06;;;;;;;26.35;4.70;;;20.60;99.90;;;;;;5050420;28;20424;-70
2021/04/09 12:23:33;;;;;;;17.83;4.15;;;20.50;99.90;;;;;;5050802;28;20021;-71
2021/04/09 12:26:01;;;;;;;19.95;3.67;;;20.50;99.90;;;;;;5052367;28;20036;-71
2021/04/09 12:28:28;;;;;;;24.73;4.57;;;20.50;99.90;;;;;;5049298;28;20028;-70
2021/04/09 12:30:55;;;;;;;19.50;4.32;;;20.50;99.90;;;;;;5051366;28;20036;-71
2021/04/09 12:33:23;;;;;;;24.67;5.47;;;20.50;99.90;;;;;;5037661;28;20141;-71
2021/04/09 12:35:50;;;;;;;22.58;4.78;;;20.40;99.90;;;;;;5032641;28;20036;-71
2021/04/09 12:38:18;;;;;;;20.35;4.13;;;20.40;99.90;;;;;;5046522;28;20027;-71
2021/04/09 12:40:45;;;;;;;20.80;3.90;;;20.40;99.90;;;;;;5052007;28;20040;-70
2021/04/09 12:43:13;;;;;;;21.60;3.78;;;20.40;99.90;;;;;;5049337;28;20116;-71
2021/04/09 12:45:40;;;;;;;23.38;4.57;;;20.40;99.90;;;;;;5051786;28;20036;-71
2021/04/09 12:48:07;;;;;;;19.98;4.07;;;20.40;99.90;;;;;;5045919;28;20052;-71
2021/04/09 12:50:35;;;;;;;24.48;5.80;;;20.40;99.90;;;;;;5052106;28;20029;-71
2021/04/09 12:53:02;;;;;;;21.42;4.50;;;20.50;99.90;;;;;;5045810;28;20067;-71
2021/04/09 12:55:29;;;;;;;24.20;3.70;;;20.50;99.90;;;;;;5051265;28;20072;-71
2021/04/09 12:57:57;;;;;;;21.33;3.85;;;20.50;99.90;;;;;;5050131;28;20029;-70
2021/04/09 13:00:24;;;;;;;26.75;3.85;;;20.40;99.90;;;;;;5051676;28;20029;-72